sensor_id;sensor_type;location;lat;lon;timestamp;pressure;altitude;pressure_sealevel;temperature;humidity
72925;BME280;61070;50.794;7.054;2022-11-20T00:00:23;100504.41;;;2.96;88.00
72925;BME280;61070;50.794;7.054;2022-11-20T00:02:48;100508.78;;;2.98;87.55
72925;BME280;61070;50.794;7.054;2022-11-20T00:05:14;100512.31;;;3.00;87.94
72925;BME280;61070;50.794;7.054;2022-11-20T00:07:39;100507.06;;;2.99;87.74
72925;BME280;61070;50.794;7.054;2022-11-20T00:10:05;100511.44;;;3.01;87.58
72925;BME280;61070;50.794;7.054;2022-11-20T00:12:31;100510.59;;;3.02;87.74
72925;BME280;61070;50.794;7.054;2022-11-20T00:14:56;100499.91;;;2.87;87.53
72925;BME280;61070;50.794;7.054;2022-11-20T00:17:21;100506.13;;;2.95;88.06
72925;BME280;61070;50.794;7.054;2022-11-20T00:19:47;100496.56;;;2.97;88.65
72925;BME280;61070;50.794;7.054;2022-11-20T00:22:12;100493.13;;;3.00;87.41
72925;BME280;61070;50.794;7.054;2022-11-20T00:24:37;100501.81;;;2.97;88.17
72925;BME280;61070;50.794;7.054;2022-11-20T00:27:02;100499.34;;;3.06;87.70
72925;BME280;61070;50.794;7.054;2022-11-20T00:29:28;100509.72;;;3.02;87.83
72925;BME280;61070;50.794;7.054;2022-11-20T00:31:53;100499.25;;;3.03;87.47
72925;BME280;61070;50.794;7.054;2022-11-20T00:34:18;100510.50;;;2.96;87.44
72925;BME280;61070;50.794;7.054;2022-11-20T00:36:43;100507.97;;;3.02;87.55
72925;BME280;61070;50.794;7.054;2022-11-20T00:39:09;100514.09;;;3.03;87.38
72925;BME280;61070;50.794;7.054;2022-11-20T00:41:34;100500.06;;;2.98;86.92
72925;BME280;61070;50.794;7.054;2022-11-20T00:43:59;100503.47;;;2.93;87.79
72925;BME280;61070;50.794;7.054;2022-11-20T00:46:26;100491.38;;;3.00;87.55
72925;BME280;61070;50.794;7.054;2022-11-20T00:48:52;100491.38;;;3.00;88.41
72925;BME280;61070;50.794;7.054;2022-11-20T00:51:19;100496.72;;;3.06;87.27
72925;BME280;61070;50.794;7.054;2022-11-20T00:53:45;100492.25;;;3.01;88.16
72925;BME280;61070;50.794;7.054;2022-11-20T00:56:13;100487.06;;;3.05;87.18
72925;BME280;61070;50.794;7.054;2022-11-20T00:58:41;100488.88;;;3.06;86.09
72925;BME280;61070;50.794;7.054;2022-11-20T01:01:12;100485.28;;;3.00;86.75
72925;BME280;61070;50.794;7.054;2022-11-20T01:03:40;100491.41;;;3.03;87.46
72925;BME280;61070;50.794;7.054;2022-11-20T01:06:11;100495.59;;;2.92;86.98
72925;BME280;61070;50.794;7.054;2022-11-20T01:08:37;100488.66;;;2.94;87.00
72925;BME280;61070;50.794;7.054;2022-11-20T01:11:05;100492.19;;;2.96;86.62
72925;BME280;61070;50.794;7.054;2022-11-20T01:13:31;100483.50;;;2.99;86.28
72925;BME280;61070;50.794;7.054;2022-11-20T01:16:05;100487.06;;;3.05;85.57
72925;BME280;61070;50.794;7.054;2022-11-20T01:18:31;100488.78;;;3.02;85.92
72925;BME280;61070;50.794;7.054;2022-11-20T01:21:07;100492.94;;;2.89;86.73
72925;BME280;61070;50.794;7.054;2022-11-20T01:23:38;100495.59;;;2.90;86.48
72925;BME280;61070;50.794;7.054;2022-11-20T01:26:07;100489.44;;;2.87;86.47
72925;BME280;61070;50.794;7.054;2022-11-20T01:28:33;100485.13;;;2.92;86.73
72925;BME280;61070;50.794;7.054;2022-11-20T01:30:59;100493.06;;;2.97;87.30
72925;BME280;61070;50.794;7.054;2022-11-20T01:33:25;100493.78;;;2.86;87.32
72925;BME280;61070;50.794;7.054;2022-11-20T01:35:51;100495.56;;;2.89;87.37
72925;BME280;61070;50.794;7.054;2022-11-20T01:38:16;100489.44;;;2.88;87.39
72925;BME280;61070;50.794;7.054;2022-11-20T01:40:42;100491.34;;;2.97;87.10
72925;BME280;61070;50.794;7.054;2022-11-20T01:43:17;100499.97;;;2.93;87.24
72925;BME280;61070;50.794;7.054;2022-11-20T01:46:15;100494.84;;;2.99;86.27
72925;BME280;61070;50.794;7.054;2022-11-20T01:48:51;100500.97;;;3.00;86.63
72925;BME280;61070;50.794;7.054;2022-11-20T01:51:37;100492.22;;;2.98;86.25
72925;BME280;61070;50.794;7.054;2022-11-20T01:54:06;100490.44;;;2.95;87.03
72925;BME280;61070;50.794;7.054;2022-11-20T01:56:35;100487.81;;;2.95;87.17
72925;BME280;61070;50.794;7.054;2022-11-20T01:59:04;100486.13;;;2.99;87.36
72925;BME280;61070;50.794;7.054;2022-11-20T02:01:31;100474.84;;;3.03;87.18
72925;BME280;61070;50.794;7.054;2022-11-20T02:03:56;100468.75;;;3.05;87.35
72925;BME280;61070;50.794;7.054;2022-11-20T02:06:25;100473.97;;;3.02;87.08
72925;BME280;61070;50.794;7.054;2022-11-20T02:08:53;100474.84;;;3.03;86.82
72925;BME280;61070;50.794;7.054;2022-11-20T02:11:18;100465.22;;;3.00;87.51
72925;BME280;61070;50.794;7.054;2022-11-20T02:13:44;100454.75;;;3.00;87.73
72925;BME280;61070;50.794;7.054;2022-11-20T02:16:30;100456.47;;;2.98;88.01
72925;BME280;61070;50.794;7.054;2022-11-20T02:18:59;100453.75;;;2.93;88.32
72925;BME280;61070;50.794;7.054;2022-11-20T02:21:31;100447.63;;;2.90;88.39
72925;BME280;61070;50.794;7.054;2022-11-20T02:24:08;100458.97;;;2.90;88.08
72925;BME280;61070;50.794;7.054;2022-11-20T02:26:49;100455.50;;;2.91;88.04
72925;BME280;61070;50.794;7.054;2022-11-20T02:29:18;100460.56;;;2.82;88.08
72925;BME280;61070;50.794;7.054;2022-11-20T02:31:44;100471.16;;;2.88;88.11
72925;BME280;61070;50.794;7.054;2022-11-20T02:34:10;100461.59;;;2.92;88.31
72925;BME280;61070;50.794;7.054;2022-11-20T02:36:36;100458.97;;;2.90;88.33
72925;BME280;61070;50.794;7.054;2022-11-20T02:39:04;100455.41;;;2.84;87.94
72925;BME280;61070;50.794;7.054;2022-11-20T02:41:35;100464.19;;;2.89;88.16
72925;BME280;61070;50.794;7.054;2022-11-20T02:44:02;100458.06;;;2.88;88.76
72925;BME280;61070;50.794;7.054;2022-11-20T02:46:27;100454.56;;;2.88;89.19
72925;BME280;61070;50.794;7.054;2022-11-20T02:48:53;100454.66;;;2.94;88.73
72925;BME280;61070;50.794;7.054;2022-11-20T02:51:18;100455.34;;;2.82;87.97
72925;BME280;61070;50.794;7.054;2022-11-20T02:53:43;100450.09;;;2.82;88.81
72925;BME280;61070;50.794;7.054;2022-11-20T02:56:08;100446.75;;;2.89;88.96
72925;BME280;61070;50.794;7.054;2022-11-20T02:58:34;100445.81;;;2.86;88.53
72925;BME280;61070;50.794;7.054;2022-11-20T03:00:59;100445.03;;;2.93;88.63
72925;BME280;61070;50.794;7.054;2022-11-20T03:03:24;100442.47;;;2.95;88.90
72925;BME280;61070;50.794;7.054;2022-11-20T03:05:49;100450.34;;;2.96;89.28
72925;BME280;61070;50.794;7.054;2022-11-20T03:08:15;100451.31;;;3.04;89.57
72925;BME280;61070;50.794;7.054;2022-11-20T03:10:40;100451.41;;;3.09;89.24
72925;BME280;61070;50.794;7.054;2022-11-20T03:13:05;100453.13;;;3.08;89.54
72925;BME280;61070;50.794;7.054;2022-11-20T03:15:30;100447.03;;;3.09;89.24
72925;BME280;61070;50.794;7.054;2022-11-20T03:17:56;100451.31;;;3.04;88.08
72925;BME280;61070;50.794;7.054;2022-11-20T03:20:21;100445.19;;;3.04;88.75
72925;BME280;61070;50.794;7.054;2022-11-20T03:22:47;100451.19;;;2.95;88.60
72925;BME280;61070;50.794;7.054;2022-11-20T03:25:12;100444.22;;;2.96;88.73
72925;BME280;61070;50.794;7.054;2022-11-20T03:27:37;100449.47;;;2.97;88.67
72925;BME280;61070;50.794;7.054;2022-11-20T03:30:03;100456.50;;;3.01;89.11
72925;BME280;61070;50.794;7.054;2022-11-20T03:32:28;100447.75;;;2.99;89.29
72925;BME280;61070;50.794;7.054;2022-11-20T03:34:54;100442.53;;;2.99;88.53
72925;BME280;61070;50.794;7.054;2022-11-20T03:37:19;100449.50;;;2.99;88.87
72925;BME280;61070;50.794;7.054;2022-11-20T03:39:44;100450.28;;;2.93;89.01
72925;BME280;61070;50.794;7.054;2022-11-20T03:42:09;100439.06;;;3.00;88.95
72925;BME280;61070;50.794;7.054;2022-11-20T03:44:53;100432.03;;;2.96;88.97
72925;BME280;61070;50.794;7.054;2022-11-20T03:47:19;100434.63;;;2.95;89.04
72925;BME280;61070;50.794;7.054;2022-11-20T03:49:44;100437.25;;;2.96;89.95
72925;BME280;61070;50.794;7.054;2022-11-20T03:52:09;100431.19;;;2.99;89.90
72925;BME280;61070;50.794;7.054;2022-11-20T03:54:34;100433.91;;;3.06;90.43
72925;BME280;61070;50.794;7.054;2022-11-20T03:57:00;100426.00;;;3.03;90.13
72925;BME280;61070;50.794;7.054;2022-11-20T03:59:25;100419.91;;;3.04;90.01
72925;BME280;61070;50.794;7.054;2022-11-20T04:01:50;100419.88;;;3.00;90.33
72925;BME280;61070;50.794;7.054;2022-11-20T04:04:15;100417.28;;;3.03;90.76
72925;BME280;61070;50.794;7.054;2022-11-20T04:06:41;100413.75;;;2.99;90.70
72925;BME280;61070;50.794;7.054;2022-11-20T04:09:06;100416.41;;;3.04;90.93
72925;BME280;61070;50.794;7.054;2022-11-20T04:11:33;100422.53;;;3.04;91.21
72925;BME280;61070;50.794;7.054;2022-11-20T04:14:01;100413.78;;;3.02;91.64
72925;BME280;61070;50.794;7.054;2022-11-20T04:16:32;100410.38;;;3.06;91.65
72925;BME280;61070;50.794;7.054;2022-11-20T04:19:00;100412.88;;;3.00;91.78
72925;BME280;61070;50.794;7.054;2022-11-20T04:21:26;100406.91;;;3.09;91.56
72925;BME280;61070;50.794;7.054;2022-11-20T04:23:52;100406.06;;;3.11;91.85
72925;BME280;61070;50.794;7.054;2022-11-20T04:26:18;100407.81;;;3.12;91.80
72925;BME280;61070;50.794;7.054;2022-11-20T04:28:44;100402.69;;;3.18;91.37
72925;BME280;61070;50.794;7.054;2022-11-20T04:31:17;100402.59;;;3.12;91.31
72925;BME280;61070;50.794;7.054;2022-11-20T04:33:43;100402.59;;;3.12;91.20
72925;BME280;61070;50.794;7.054;2022-11-20T04:36:20;100404.28;;;3.07;91.51
72925;BME280;61070;50.794;7.054;2022-11-20T04:38:46;100414.78;;;3.10;92.23
72925;BME280;61070;50.794;7.054;2022-11-20T04:41:17;100416.41;;;3.04;92.13
72925;BME280;61070;50.794;7.054;2022-11-20T04:43:46;100412.03;;;3.03;91.85
72925;BME280;61070;50.794;7.054;2022-11-20T04:46:13;100412.88;;;3.00;92.92
72925;BME280;61070;50.794;7.054;2022-11-20T04:48:39;100404.22;;;3.06;92.46
72925;BME280;61070;50.794;7.054;2022-11-20T04:51:04;100405.09;;;3.05;92.23
72925;BME280;61070;50.794;7.054;2022-11-20T04:53:30;100401.56;;;3.00;92.80
72925;BME280;61070;50.794;7.054;2022-11-20T04:56:06;100404.22;;;3.04;92.90
72925;BME280;61070;50.794;7.054;2022-11-20T04:58:33;100401.56;;;3.00;93.60
72925;BME280;61070;50.794;7.054;2022-11-20T05:01:10;100405.06;;;3.03;93.42
72925;BME280;61070;50.794;7.054;2022-11-20T05:03:37;100407.78;;;3.09;93.58
72925;BME280;61070;50.794;7.054;2022-11-20T05:06:03;100406.06;;;3.10;93.89
72925;BME280;61070;50.794;7.054;2022-11-20T05:08:29;100415.66;;;3.11;94.33
72925;BME280;61070;50.794;7.054;2022-11-20T05:11:06;100406.03;;;3.08;94.26
72925;BME280;61070;50.794;7.054;2022-11-20T05:13:32;100419.97;;;3.07;94.67
72925;BME280;61070;50.794;7.054;2022-11-20T05:16:14;100413.81;;;3.05;94.48
72925;BME280;61070;50.794;7.054;2022-11-20T05:18:41;100412.16;;;3.09;94.88
72925;BME280;61070;50.794;7.054;2022-11-20T05:21:07;100407.66;;;3.00;94.94
72925;BME280;61070;50.794;7.054;2022-11-20T05:23:33;100412.06;;;3.06;94.95
72925;BME280;61070;50.794;7.054;2022-11-20T05:25:59;100419.06;;;3.05;94.67
72925;BME280;61070;50.794;7.054;2022-11-20T05:28:24;100413.88;;;3.07;94.42
72925;BME280;61070;50.794;7.054;2022-11-20T05:30:50;100418.19;;;3.05;94.84
72925;BME280;61070;50.794;7.054;2022-11-20T05:33:16;100413.00;;;3.06;95.10
72925;BME280;61070;50.794;7.054;2022-11-20T05:35:41;100409.44;;;3.03;95.44
72925;BME280;61070;50.794;7.054;2022-11-20T05:38:07;100414.69;;;3.04;95.47
72925;BME280;61070;50.794;7.054;2022-11-20T05:40:32;100414.56;;;2.95;95.70
72925;BME280;61070;50.794;7.054;2022-11-20T05:42:57;100421.47;;;2.91;96.29
72925;BME280;61070;50.794;7.054;2022-11-20T05:45:23;100420.44;;;2.80;96.93
72925;BME280;61070;50.794;7.054;2022-11-20T05:47:48;100427.44;;;2.81;96.78
72925;BME280;61070;50.794;7.054;2022-11-20T05:50:14;100432.75;;;2.86;96.64
72925;BME280;61070;50.794;7.054;2022-11-20T05:52:40;100426.66;;;2.87;96.78
72925;BME280;61070;50.794;7.054;2022-11-20T05:55:05;100422.19;;;2.81;97.56
72925;BME280;61070;50.794;7.054;2022-11-20T05:57:31;100418.78;;;2.84;97.53
72925;BME280;61070;50.794;7.054;2022-11-20T05:59:56;100426.69;;;2.90;97.37
72925;BME280;61070;50.794;7.054;2022-11-20T06:02:21;100425.69;;;2.82;97.46
72925;BME280;61070;50.794;7.054;2022-11-20T06:04:46;100429.34;;;2.93;97.23
72925;BME280;61070;50.794;7.054;2022-11-20T06:07:12;100425.06;;;2.98;96.81
72925;BME280;61070;50.794;7.054;2022-11-20T06:09:37;100430.44;;;3.07;96.65
72925;BME280;61070;50.794;7.054;2022-11-20T06:12:02;100425.25;;;3.10;95.85
72925;BME280;61070;50.794;7.054;2022-11-20T06:14:28;100433.00;;;3.06;96.37
72925;BME280;61070;50.794;7.054;2022-11-20T06:16:53;100423.50;;;3.09;96.21
72925;BME280;61070;50.794;7.054;2022-11-20T06:19:18;100419.13;;;3.10;96.45
72925;BME280;61070;50.794;7.054;2022-11-20T06:21:44;100423.50;;;3.09;96.67
72925;BME280;61070;50.794;7.054;2022-11-20T06:24:10;100415.69;;;3.14;96.49
72925;BME280;61070;50.794;7.054;2022-11-20T06:26:35;100413.03;;;3.11;96.48
72925;BME280;61070;50.794;7.054;2022-11-20T06:29:00;100419.13;;;3.08;96.24
72925;BME280;61070;50.794;7.054;2022-11-20T06:31:26;100417.41;;;3.12;96.39
72925;BME280;61070;50.794;7.054;2022-11-20T06:33:52;100420.97;;;3.17;95.47
72925;BME280;61070;50.794;7.054;2022-11-20T06:36:19;100427.09;;;3.17;95.33
72925;BME280;61070;50.794;7.054;2022-11-20T06:38:44;100429.66;;;3.16;95.25
72925;BME280;61070;50.794;7.054;2022-11-20T06:41:12;100423.63;;;3.18;95.15
72925;BME280;61070;50.794;7.054;2022-11-20T06:43:38;100428.91;;;3.23;94.97
72925;BME280;61070;50.794;7.054;2022-11-20T06:46:03;100428.91;;;3.23;95.42
72925;BME280;61070;50.794;7.054;2022-11-20T06:48:29;100438.47;;;3.21;94.79
72925;BME280;61070;50.794;7.054;2022-11-20T06:50:55;100436.56;;;3.09;95.05
72925;BME280;61070;50.794;7.054;2022-11-20T06:53:22;100443.63;;;3.15;95.67
72925;BME280;61070;50.794;7.054;2022-11-20T06:55:48;100434.03;;;3.15;95.57
72925;BME280;61070;50.794;7.054;2022-11-20T06:58:14;100447.94;;;3.11;95.44
72925;BME280;61070;50.794;7.054;2022-11-20T07:00:40;100442.75;;;3.16;95.39
72925;BME280;61070;50.794;7.054;2022-11-20T07:03:08;100440.97;;;3.12;94.51
72925;BME280;61070;50.794;7.054;2022-11-20T07:05:34;100437.44;;;3.10;93.94
72925;BME280;61070;50.794;7.054;2022-11-20T07:08:00;100440.09;;;3.13;94.50
72925;BME280;61070;50.794;7.054;2022-11-20T07:10:25;100442.72;;;3.14;94.99
72925;BME280;61070;50.794;7.054;2022-11-20T07:12:54;100451.44;;;3.13;94.29
72925;BME280;61070;50.794;7.054;2022-11-20T07:15:22;100454.81;;;3.05;94.09
72925;BME280;61070;50.794;7.054;2022-11-20T07:17:48;100457.56;;;3.15;93.27
72925;BME280;61070;50.794;7.054;2022-11-20T07:20:14;100462.75;;;3.09;93.91
72925;BME280;61070;50.794;7.054;2022-11-20T07:22:39;100455.88;;;3.17;94.14
72925;BME280;61070;50.794;7.054;2022-11-20T07:25:05;100452.28;;;3.09;93.79
72925;BME280;61070;50.794;7.054;2022-11-20T07:27:31;100461.16;;;3.20;92.96
72925;BME280;61070;50.794;7.054;2022-11-20T07:29:56;100460.22;;;3.17;92.46
72925;BME280;61070;50.794;7.054;2022-11-20T07:32:22;100463.75;;;3.19;93.03
72925;BME280;61070;50.794;7.054;2022-11-20T07:34:48;100464.50;;;3.10;93.22
72925;BME280;61070;50.794;7.054;2022-11-20T07:37:13;100465.41;;;3.14;92.96
72925;BME280;61070;50.794;7.054;2022-11-20T07:39:39;100464.56;;;3.16;93.53
72925;BME280;61070;50.794;7.054;2022-11-20T07:42:06;100459.38;;;3.18;93.36
72925;BME280;61070;50.794;7.054;2022-11-20T07:44:31;100464.66;;;3.22;93.35
72925;BME280;61070;50.794;7.054;2022-11-20T07:46:57;100460.31;;;3.23;93.18
72925;BME280;61070;50.794;7.054;2022-11-20T07:49:22;100462.94;;;3.25;93.42
72925;BME280;61070;50.794;7.054;2022-11-20T07:51:50;100463.03;;;3.29;93.83
72925;BME280;61070;50.794;7.054;2022-11-20T07:54:15;100463.06;;;3.34;93.11
72925;BME280;61070;50.794;7.054;2022-11-20T07:56:41;100460.56;;;3.41;93.03
72925;BME280;61070;50.794;7.054;2022-11-20T07:59:06;100460.56;;;3.40;92.45
72925;BME280;61070;50.794;7.054;2022-11-20T08:01:31;100457.22;;;3.52;92.68
72925;BME280;61070;50.794;7.054;2022-11-20T08:03:56;100463.22;;;3.46;93.01
72925;BME280;61070;50.794;7.054;2022-11-20T08:06:22;100464.25;;;3.57;93.26
72925;BME280;61070;50.794;7.054;2022-11-20T08:08:47;100467.88;;;3.67;92.92
72925;BME280;61070;50.794;7.054;2022-11-20T08:11:12;100470.53;;;3.73;92.46
72925;BME280;61070;50.794;7.054;2022-11-20T08:13:56;100457.50;;;3.74;92.10
72925;BME280;61070;50.794;7.054;2022-11-20T08:16:36;100456.63;;;3.75;92.46
72925;BME280;61070;50.794;7.054;2022-11-20T08:19:02;100447.94;;;3.81;92.14
72925;BME280;61070;50.794;7.054;2022-11-20T08:21:27;100450.69;;;3.92;91.78
72925;BME280;61070;50.794;7.054;2022-11-20T08:23:52;100459.41;;;3.92;91.42
72925;BME280;61070;50.794;7.054;2022-11-20T08:26:17;100456.03;;;4.01;91.11
72925;BME280;61070;50.794;7.054;2022-11-20T08:28:43;100450.88;;;4.10;90.76
72925;BME280;61070;50.794;7.054;2022-11-20T08:31:09;100450.88;;;4.10;90.87
72925;BME280;61070;50.794;7.054;2022-11-20T08:33:35;100445.69;;;4.16;90.61
72925;BME280;61070;50.794;7.054;2022-11-20T08:36:05;100443.06;;;4.16;90.98
72925;BME280;61070;50.794;7.054;2022-11-20T08:38:31;100457.13;;;4.21;90.84
72925;BME280;61070;50.794;7.054;2022-11-20T08:41:01;100457.94;;;4.17;91.36
72925;BME280;61070;50.794;7.054;2022-11-20T08:43:45;100450.94;;;4.16;90.80
72925;BME280;61070;50.794;7.054;2022-11-20T08:46:10;100450.91;;;4.15;91.26
72925;BME280;61070;50.794;7.054;2022-11-20T08:48:35;100450.91;;;4.13;91.51
72925;BME280;61070;50.794;7.054;2022-11-20T08:51:01;100458.84;;;4.19;91.70
72925;BME280;61070;50.794;7.054;2022-11-20T08:53:27;100459.75;;;4.24;90.87
72925;BME280;61070;50.794;7.054;2022-11-20T08:55:52;100466.78;;;4.30;90.81
72925;BME280;61070;50.794;7.054;2022-11-20T08:58:18;100457.34;;;4.44;90.18
72925;BME280;61070;50.794;7.054;2022-11-20T09:00:43;100451.16;;;4.41;89.72
72925;BME280;61070;50.794;7.054;2022-11-20T09:03:08;100448.56;;;4.42;89.16
72925;BME280;61070;50.794;7.054;2022-11-20T09:05:34;100444.16;;;4.36;89.82
72925;BME280;61070;50.794;7.054;2022-11-20T09:07:59;100457.16;;;4.29;90.10
72925;BME280;61070;50.794;7.054;2022-11-20T09:10:28;100452.97;;;4.46;89.25
72925;BME280;61070;50.794;7.054;2022-11-20T09:12:54;100446.06;;;4.54;88.38
72925;BME280;61070;50.794;7.054;2022-11-20T09:15:20;100447.84;;;4.60;88.70
72925;BME280;61070;50.794;7.054;2022-11-20T09:17:52;100450.59;;;4.77;88.35
72925;BME280;61070;50.794;7.054;2022-11-20T09:20:18;100447.06;;;4.75;87.42
72925;BME280;61070;50.794;7.054;2022-11-20T09:22:44;100447.94;;;4.72;87.26
72925;BME280;61070;50.794;7.054;2022-11-20T09:25:09;100448.88;;;4.79;87.17
72925;BME280;61070;50.794;7.054;2022-11-20T09:27:34;100438.38;;;4.77;88.19
72925;BME280;61070;50.794;7.054;2022-11-20T09:30:00;100448.91;;;4.85;88.20
72925;BME280;61070;50.794;7.054;2022-11-20T09:32:26;100442.66;;;4.66;87.49
72925;BME280;61070;50.794;7.054;2022-11-20T09:34:51;100440.91;;;4.65;88.64
72925;BME280;61070;50.794;7.054;2022-11-20T09:37:16;100435.59;;;4.62;88.72
72925;BME280;61070;50.794;7.054;2022-11-20T09:39:41;100429.47;;;4.61;89.08
72925;BME280;61070;50.794;7.054;2022-11-20T09:45:13;100427.91;;;4.86;88.51
72925;BME280;61070;50.794;7.054;2022-11-20T09:48:03;100429.78;;;5.07;87.36
72925;BME280;61070;50.794;7.054;2022-11-20T09:50:38;100427.28;;;5.21;86.55
72925;BME280;61070;50.794;7.054;2022-11-20T09:53:23;100426.41;;;5.26;86.30
72925;BME280;61070;50.794;7.054;2022-11-20T09:55:54;100430.84;;;5.38;86.02
72925;BME280;61070;50.794;7.054;2022-11-20T09:58:34;100433.47;;;5.34;86.08
72925;BME280;61070;50.794;7.054;2022-11-20T10:01:12;100431.72;;;5.42;84.45
72925;BME280;61070;50.794;7.054;2022-11-20T10:04:10;100437.84;;;5.35;85.54
72925;BME280;61070;50.794;7.054;2022-11-20T10:06:46;100430.94;;;5.57;84.78
72925;BME280;61070;50.794;7.054;2022-11-20T10:11:59;100426.59;;;5.69;83.14
72925;BME280;61070;50.794;7.054;2022-11-20T10:20:27;100427.44;;;5.64;84.81
72925;BME280;61070;50.794;7.054;2022-11-20T10:25:42;100417.84;;;5.73;84.60
72925;BME280;61070;50.794;7.054;2022-11-20T10:31:00;100398.66;;;5.91;82.20
72925;BME280;61070;50.794;7.054;2022-11-20T10:33:27;100382.00;;;5.92;82.20
72925;BME280;61070;50.794;7.054;2022-11-20T10:36:14;100377.66;;;6.03;81.87
72925;BME280;61070;50.794;7.054;2022-11-20T10:39:01;100368.88;;;5.98;81.43
72925;BME280;61070;50.794;7.054;2022-11-20T10:41:32;100367.06;;;5.83;82.27
72925;BME280;61070;50.794;7.054;2022-11-20T10:46:39;100361.00;;;5.92;82.81
72925;BME280;61070;50.794;7.054;2022-11-20T10:49:16;100364.41;;;5.74;82.89
72925;BME280;61070;50.794;7.054;2022-11-20T10:51:55;100358.28;;;5.72;83.71
72925;BME280;61070;50.794;7.054;2022-11-20T10:54:44;100356.53;;;5.68;83.31
72925;BME280;61070;50.794;7.054;2022-11-20T10:57:29;100356.50;;;5.61;83.75
72925;BME280;61070;50.794;7.054;2022-11-20T11:00:05;100356.50;;;5.65;83.02
72925;BME280;61070;50.794;7.054;2022-11-20T11:02:39;100342.50;;;5.74;83.61
72925;BME280;61070;50.794;7.054;2022-11-20T11:07:56;100338.97;;;5.52;86.00
72925;BME280;61070;50.794;7.054;2022-11-20T11:12:51;100329.28;;;5.43;85.67
72925;BME280;61070;50.794;7.054;2022-11-20T11:15:28;100328.44;;;5.50;85.50
72925;BME280;61070;50.794;7.054;2022-11-20T11:17:54;100325.84;;;5.63;84.85
72925;BME280;61070;50.794;7.054;2022-11-20T11:20:22;100320.59;;;5.60;84.28
72925;BME280;61070;50.794;7.054;2022-11-20T11:22:49;100311.00;;;5.81;84.33
72925;BME280;61070;50.794;7.054;2022-11-20T11:27:49;100316.28;;;6.07;83.88
72925;BME280;61070;50.794;7.054;2022-11-20T11:30:17;100311.91;;;6.06;83.23
72925;BME280;61070;50.794;7.054;2022-11-20T11:32:43;100308.44;;;6.01;84.10
72925;BME280;61070;50.794;7.054;2022-11-20T11:35:27;100293.53;;;5.91;84.26
72925;BME280;61070;50.794;7.054;2022-11-20T11:38:17;100286.47;;;5.87;84.25
72925;BME280;61070;50.794;7.054;2022-11-20T11:40:46;100281.19;;;5.85;84.85
72925;BME280;61070;50.794;7.054;2022-11-20T11:43:20;100283.81;;;5.75;85.32
72925;BME280;61070;50.794;7.054;2022-11-20T11:48:40;100276.81;;;5.63;85.63
72925;BME280;61070;50.794;7.054;2022-11-20T11:51:08;100276.81;;;5.59;86.11
72925;BME280;61070;50.794;7.054;2022-11-20T11:53:40;100277.69;;;5.64;85.87
72925;BME280;61070;50.794;7.054;2022-11-20T11:56:09;100279.44;;;5.63;86.79
72925;BME280;61070;50.794;7.054;2022-11-20T11:58:51;100271.53;;;5.65;86.46
72925;BME280;61070;50.794;7.054;2022-11-20T12:01:42;100270.69;;;5.55;86.19
72925;BME280;61070;50.794;7.054;2022-11-20T12:07:35;100254.94;;;5.67;86.34
72925;BME280;61070;50.794;7.054;2022-11-20T12:10:04;100254.06;;;5.70;86.32
72925;BME280;61070;50.794;7.054;2022-11-20T12:12:44;100250.53;;;5.65;86.66
72925;BME280;61070;50.794;7.054;2022-11-20T12:15:12;100242.63;;;5.54;86.82
72925;BME280;61070;50.794;7.054;2022-11-20T12:17:41;100240.03;;;5.65;86.47
72925;BME280;61070;50.794;7.054;2022-11-20T12:20:15;100244.41;;;5.70;85.81
72925;BME280;61070;50.794;7.054;2022-11-20T12:22:50;100230.38;;;5.76;86.44
72925;BME280;61070;50.794;7.054;2022-11-20T12:25:27;100232.13;;;5.88;85.32
72925;BME280;61070;50.794;7.054;2022-11-20T12:28:13;100229.53;;;5.98;85.29
72925;BME280;61070;50.794;7.054;2022-11-20T12:31:04;100227.78;;;6.03;85.38
72925;BME280;61070;50.794;7.054;2022-11-20T12:36:56;100212.88;;;6.08;85.81
72925;BME280;61070;50.794;7.054;2022-11-20T12:39:33;100200.56;;;6.30;84.71
72925;BME280;61070;50.794;7.054;2022-11-20T12:42:18;100204.94;;;6.30;84.63
72925;BME280;61070;50.794;7.054;2022-11-20T12:53:42;100183.00;;;6.38;83.98
72925;BME280;61070;50.794;7.054;2022-11-20T12:56:23;100191.78;;;6.37;84.38
72925;BME280;61070;50.794;7.054;2022-11-20T12:59:15;100181.25;;;6.37;84.77
72925;BME280;61070;50.794;7.054;2022-11-20T13:02:09;100182.19;;;6.24;84.93
72925;BME280;61070;50.794;7.054;2022-11-20T13:07:35;100169.00;;;6.36;84.93
72925;BME280;61070;50.794;7.054;2022-11-20T13:10:02;100165.50;;;6.36;84.78
72925;BME280;61070;50.794;7.054;2022-11-20T13:12:45;100160.25;;;6.21;85.45
72925;BME280;61070;50.794;7.054;2022-11-20T13:15:27;100154.09;;;6.29;85.54
72925;BME280;61070;50.794;7.054;2022-11-20T13:17:59;100151.50;;;6.26;86.00
72925;BME280;61070;50.794;7.054;2022-11-20T13:20:25;100139.13;;;6.43;85.87
72925;BME280;61070;50.794;7.054;2022-11-20T13:22:53;100133.03;;;6.35;86.07
72925;BME280;61070;50.794;7.054;2022-11-20T13:25:32;100135.63;;;6.43;86.10
72925;BME280;61070;50.794;7.054;2022-11-20T13:28:00;100130.38;;;6.43;85.71
72925;BME280;61070;50.794;7.054;2022-11-20T13:30:27;100131.28;;;6.36;85.74
72925;BME280;61070;50.794;7.054;2022-11-20T13:32:58;100116.38;;;6.33;86.11
72925;BME280;61070;50.794;7.054;2022-11-20T13:35:32;100115.44;;;6.43;86.26
72925;BME280;61070;50.794;7.054;2022-11-20T13:38:05;100115.47;;;6.42;86.00
72925;BME280;61070;50.794;7.054;2022-11-20T13:40:32;100108.47;;;6.41;86.49
72925;BME280;61070;50.794;7.054;2022-11-20T13:45:57;100111.94;;;6.49;86.83
72925;BME280;61070;50.794;7.054;2022-11-20T13:48:38;100108.38;;;6.55;86.44
72925;BME280;61070;50.794;7.054;2022-11-20T13:51:10;100091.72;;;6.59;87.03
72925;BME280;61070;50.794;7.054;2022-11-20T13:54:06;100086.50;;;6.48;88.27
72925;BME280;61070;50.794;7.054;2022-11-20T13:56:54;100082.97;;;6.51;88.54
72925;BME280;61070;50.794;7.054;2022-11-20T14:02:16;100060.22;;;6.47;89.23
72925;BME280;61070;50.794;7.054;2022-11-20T14:04:47;100061.09;;;6.44;89.56